Time;durP1;ratioP1;P1;durP2;ratioP2;P2;SDS_P1;SDS_P2;PMS_P1;PMS_P2;Temp;Humidity;BMP_temperature;BMP_pressure;BME280_temperature;BME280_humidity;BME280_pressure;Samples;Min_cycle;Max_cycle;Signal;HPM_P1;HPM_P2
2021/01/20 00:01:29;;;;;;;22.37;11.07;;;;;;;;;;5071735;28;20044;-57
2021/01/20 00:03:55;;;;;;;26.07;11.47;;;;;;;;;;5072945;28;20483;-56
2021/01/20 00:06:30;;;;;;;18.63;10.17;;;;;;;;;;5072656;28;20460;-58
2021/01/20 00:08:56;;;;;;;28.15;11.30;;;;;;;;;;5071251;28;20044;-56
2021/01/20 00:11:25;;;;;;;24.23;10.93;;;;;;;;;;5071303;28;20039;-58
2021/01/20 00:13:52;;;;;;;18.65;10.02;;;;;;;;;;5054624;28;20032;-56
2021/01/20 00:16:17;;;;;;;;;;;;;;;;;;5073802;28;20472;-62
2021/01/20 00:18:42;;;;;;;20.70;10.17;;;;;;;;;;5071598;28;20437;-58
2021/01/20 00:21:08;;;;;;;16.63;9.53;;;;;;;;;;5070806;28;20256;-58
2021/01/20 00:23:33;;;;;;;12.47;7.43;;;;;;;;;;5070749;28;20097;-59
2021/01/20 00:25:58;;;;;;;21.33;11.97;;;;;;;;;;5072354;28;20056;-59
2021/01/20 00:28:24;;;;;;;30.00;13.07;;;;;;;;;;5071358;28;20031;-56
2021/01/20 00:30:50;;;;;;;19.45;9.45;;;;;;;;;;5070929;28;20090;-58
2021/01/20 00:33:15;;;;;;;16.97;9.30;;;;;;;;;;5071810;28;20119;-57
2021/01/20 00:35:40;;;;;;;33.60;11.30;;;;;;;;;;5070485;28;20083;-57
2021/01/20 00:38:06;;;;;;;18.80;9.37;;;;;;;;;;5071349;28;20020;-59
2021/01/20 00:40:31;;;;;;;17.80;8.97;;;;;;;;;;5071492;28;20500;-59
2021/01/20 01:57:40;;;;;;;22.23;9.93;;;;;;;;;;4503446;22;20130;31
2021/01/20 02:00:08;;;;;;;16.15;8.35;;;;;;;;;;4964880;28;20055;-69
2021/01/20 02:02:39;;;;;;;16.48;8.15;;;;;;;;;;4956936;28;20502;-69
2021/01/20 02:05:07;;;;;;;19.67;7.88;;;;;;;;;;4969308;28;20042;-70
2021/01/20 02:07:37;;;;;;;18.27;8.10;;;;;;;;;;4990233;28;20042;-71
2021/01/20 02:10:05;;;;;;;16.07;6.73;;;;;;;;;;4974346;28;20030;-69
2021/01/20 02:12:32;;;;;;;20.70;8.02;;;;;;;;;;4990347;28;20022;-69
2021/01/20 02:15:07;;;;;;;14.63;9.23;;;;;;;;;;4986617;28;20399;-69
2021/01/20 02:17:46;;;;;;;20.20;8.77;;;;;;;;;;4970646;28;20086;-69
2021/01/20 02:20:41;;;;;;;13.13;7.20;;;;;;;;;;4974573;28;20205;-69
2021/01/20 02:23:09;;;;;;;16.52;7.47;;;;;;;;;;4990264;28;20537;-69
2021/01/20 02:26:03;;;;;;;17.02;6.88;;;;;;;;;;4974159;28;20162;-69
2021/01/20 02:28:40;;;;;;;22.67;8.98;;;;;;;;;;4962484;28;20031;-69
2021/01/20 02:31:21;;;;;;;16.63;8.73;;;;;;;;;;4971298;28;20031;-69
2021/01/20 02:33:47;;;;;;;17.98;8.50;;;;;;;;;;4958822;28;20027;-69
2021/01/20 02:36:30;;;;;;;12.90;6.78;;;;;;;;;;4987402;28;20071;-69
2021/01/20 02:39:17;;;;;;;21.42;9.10;;;;;;;;;;4975175;28;20475;-69
2021/01/20 02:41:45;;;;;;;13.02;7.65;;;;;;;;;;4974049;28;20046;-69
2021/01/20 02:44:19;;;;;;;14.75;7.20;;;;;;;;;;4973618;28;20396;-71
2021/01/20 02:46:52;;;;;;;19.30;7.45;;;;;;;;;;4989715;28;20039;-69
2021/01/20 02:49:31;;;;;;;16.38;6.70;;;;;;;;;;4990157;28;20047;-70
2021/01/20 02:52:11;;;;;;;13.40;7.53;;;;;;;;;;4989505;28;20165;-70
2021/01/20 02:55:10;;;;;;;15.05;7.65;;;;;;;;;;4983647;28;20047;-70
2021/01/20 02:57:59;;;;;;;16.85;8.20;;;;;;;;;;4959488;28;20043;-68
2021/01/20 03:00:29;;;;;;;19.48;7.88;;;;;;;;;;4974387;28;20053;-68
2021/01/20 03:03:10;;;;;;;18.50;8.30;;;;;;;;;;4987593;28;20042;-69
2021/01/20 03:05:36;;;;;;;19.73;9.73;;;;;;;;;;4989898;28;20471;-68
2021/01/20 03:08:02;;;;;;;19.27;9.25;;;;;;;;;;4974439;28;20043;-68
2021/01/20 03:10:27;;;;;;;17.55;8.70;;;;;;;;;;4975178;28;20066;-69
2021/01/20 03:12:53;;;;;;;18.70;9.20;;;;;;;;;;4974551;28;20049;-67
2021/01/20 03:15:22;;;;;;;14.83;8.47;;;;;;;;;;4975064;28;20134;-69
2021/01/20 03:17:48;;;;;;;13.38;7.38;;;;;;;;;;4989911;28;20427;-69
2021/01/20 03:20:14;;;;;;;16.57;7.97;;;;;;;;;;4974404;28;20039;-70
2021/01/20 03:22:39;;;;;;;19.77;8.30;;;;;;;;;;4974762;28;20277;-70
2021/01/20 03:25:05;;;;;;;18.87;7.70;;;;;;;;;;4974007;28;20035;-69
2021/01/20 03:27:30;;;;;;;17.67;6.78;;;;;;;;;;4974603;28;20306;-69
2021/01/20 03:29:55;;;;;;;13.63;7.50;;;;;;;;;;4974278;28;20051;-68
2021/01/20 03:32:21;;;;;;;11.43;6.20;;;;;;;;;;4974853;28;20101;-69
2021/01/20 03:34:46;;;;;;;13.97;7.03;;;;;;;;;;4974756;28;20046;-70
2021/01/20 03:37:11;;;;;;;11.37;6.23;;;;;;;;;;4973906;28;20122;-69
2021/01/20 03:39:36;;;;;;;11.93;6.77;;;;;;;;;;4974635;28;20039;-70
2021/01/20 03:42:02;;;;;;;12.97;5.53;;;;;;;;;;4988825;28;20519;-69
2021/01/20 03:44:27;;;;;;;11.00;5.97;;;;;;;;;;4974290;28;20038;-70
2021/01/20 03:46:53;;;;;;;15.57;7.03;;;;;;;;;;4974458;28;20264;-68
2021/01/20 03:49:18;;;;;;;14.40;6.77;;;;;;;;;;4973891;28;20141;-68
2021/01/20 03:51:45;;;;;;;12.25;6.03;;;;;;;;;;4973226;28;20068;-70
2021/01/20 03:54:11;;;;;;;11.40;5.93;;;;;;;;;;4973737;28;20051;-69
2021/01/20 03:56:36;;;;;;;14.85;6.65;;;;;;;;;;4973397;28;20039;-70
2021/01/20 03:59:02;;;;;;;12.87;5.43;;;;;;;;;;4973132;28;20086;-68
2021/01/20 04:01:27;;;;;;;16.23;6.43;;;;;;;;;;4973991;28;20061;-69
2021/01/20 04:03:52;;;;;;;11.83;5.27;;;;;;;;;;4972703;28;20027;-69
2021/01/20 04:06:21;;;;;;;13.40;5.60;;;;;;;;;;4988043;28;20435;-69
2021/01/20 04:08:46;;;;;;;11.30;5.40;;;;;;;;;;4973497;28;20035;-69
2021/01/20 04:11:12;;;;;;;10.70;5.90;;;;;;;;;;4987935;28;20061;-70
2021/01/20 04:13:37;;;;;;;13.60;5.87;;;;;;;;;;4973676;28;20034;-70
2021/01/20 04:16:03;;;;;;;10.93;6.20;;;;;;;;;;4972822;28;20116;-68
2021/01/20 04:18:28;;;;;;;15.32;6.70;;;;;;;;;;4973608;28;20034;-69
2021/01/20 04:20:54;;;;;;;10.60;5.77;;;;;;;;;;4973524;28;20027;-68
2021/01/20 04:23:19;;;;;;;12.80;6.37;;;;;;;;;;4971360;28;20030;-69
2021/01/20 04:25:44;;;;;;;11.43;7.17;;;;;;;;;;4973569;28;20030;-69
2021/01/20 04:28:10;;;;;;;11.87;6.20;;;;;;;;;;4972888;28;20038;-68
2021/01/20 04:30:35;;;;;;;15.13;6.80;;;;;;;;;;4972297;28;20041;-68
2021/01/20 04:33:01;;;;;;;12.97;6.87;;;;;;;;;;4972747;28;20061;-68
2021/01/20 04:35:26;;;;;;;13.40;6.13;;;;;;;;;;4971905;28;20249;-69
2021/01/20 04:37:51;;;;;;;10.07;6.20;;;;;;;;;;4973442;28;20118;-69
2021/01/20 04:40:17;;;;;;;8.67;5.47;;;;;;;;;;4972542;28;20061;-68
2021/01/20 04:42:43;;;;;;;8.27;4.83;;;;;;;;;;4972816;28;20027;-70
2021/01/20 04:45:09;;;;;;;;;;;;;;;;;;4972606;28;20025;-69
2021/01/20 04:47:34;;;;;;;13.13;6.00;;;;;;;;;;4973248;28;19910;-68
2021/01/20 04:50:01;;;;;;;7.50;5.10;;;;;;;;;;4971791;28;20109;-69
2021/01/20 04:52:26;;;;;;;8.10;4.68;;;;;;;;;;4973246;28;20027;-68
2021/01/20 04:54:53;;;;;;;13.82;5.75;;;;;;;;;;4973182;28;20119;-69
2021/01/20 04:57:18;;;;;;;;;;;;;;;;;;4987754;28;20050;-69
2021/01/20 04:59:44;;;;;;;11.37;5.67;;;;;;;;;;4972656;28;20497;-68
2021/01/20 05:02:10;;;;;;;9.60;4.87;;;;;;;;;;4972305;28;20027;-68
2021/01/20 05:04:37;;;;;;;8.07;4.47;;;;;;;;;;4987202;28;20379;-69
2021/01/20 05:07:03;;;;;;;17.70;5.47;;;;;;;;;;4968048;28;20023;-53
2021/01/20 05:09:28;;;;;;;11.95;4.38;;;;;;;;;;4971830;28;20031;-70
2021/01/20 05:11:53;;;;;;;8.43;4.50;;;;;;;;;;4972848;28;20046;-68
2021/01/20 05:14:19;;;;;;;7.80;4.47;;;;;;;;;;4970944;28;20035;-69
2021/01/20 05:16:52;;;;;;;12.37;4.87;;;;;;;;;;4972723;28;20027;-69
2021/01/20 05:19:37;;;;;;;8.52;4.88;;;;;;;;;;4972143;28;20050;-69
2021/01/20 05:22:06;;;;;;;7.00;3.70;;;;;;;;;;4971609;28;20459;-69
2021/01/20 05:24:32;;;;;;;8.43;5.18;;;;;;;;;;4972470;28;20432;-69
2021/01/20 05:26:58;;;;;;;11.60;4.63;;;;;;;;;;4971245;28;20203;-70
2021/01/20 05:29:23;;;;;;;7.13;4.03;;;;;;;;;;4972033;28;20326;-70
2021/01/20 05:31:49;;;;;;;10.77;4.63;;;;;;;;;;4972712;28;20035;-68
2021/01/20 05:34:28;;;;;;;8.23;4.37;;;;;;;;;;4972112;28;20386;-67
2021/01/20 05:37:00;;;;;;;5.63;2.90;;;;;;;;;;4972726;28;20035;-68
2021/01/20 05:39:25;;;;;;;9.52;4.47;;;;;;;;;;4987129;28;20039;-68
2021/01/20 05:41:58;;;;;;;7.47;4.20;;;;;;;;;;4971571;28;20034;-69
2021/01/20 05:44:23;;;;;;;9.43;4.25;;;;;;;;;;4972282;28;20471;-68
2021/01/20 05:46:49;;;;;;;9.23;4.13;;;;;;;;;;4972748;28;20037;-69
2021/01/20 05:49:30;;;;;;;9.17;3.70;;;;;;;;;;4970653;28;20031;-67
2021/01/20 05:51:56;;;;;;;9.90;4.35;;;;;;;;;;4972503;28;20455;-68
2021/01/20 05:54:30;;;;;;;9.80;4.20;;;;;;;;;;4972064;28;20060;-69
2021/01/20 05:57:08;;;;;;;10.77;5.28;;;;;;;;;;4987018;28;20070;-69
2021/01/20 05:59:35;;;;;;;7.32;4.00;;;;;;;;;;4972438;28;20057;-70
2021/01/20 06:02:01;;;;;;;11.63;4.32;;;;;;;;;;4987542;28;20125;-69
2021/01/20 06:04:26;;;;;;;7.22;3.95;;;;;;;;;;4986927;28;20458;-69
2021/01/20 06:06:53;;;;;;;9.70;4.10;;;;;;;;;;4972368;28;20035;-69
2021/01/20 06:09:18;;;;;;;;;;;;;;;;;;4972038;28;20117;-69
2021/01/20 06:11:43;;;;;;;6.80;3.90;;;;;;;;;;4972197;28;20004;-70
2021/01/20 06:14:09;;;;;;;6.43;3.57;;;;;;;;;;4971645;28;20387;-65
2021/01/20 06:16:35;;;;;;;8.17;3.50;;;;;;;;;;4972303;28;20453;-69
2021/01/20 06:19:00;;;;;;;;;;;;;;;;;;4972720;28;20121;-70
2021/01/20 06:21:27;;;;;;;7.90;3.73;;;;;;;;;;4974038;28;20132;-69
2021/01/20 06:23:54;;;;;;;6.82;3.25;;;;;;;;;;4974621;28;20106;-69
2021/01/20 06:26:22;;;;;;;8.90;4.03;;;;;;;;;;4975188;28;20112;-69
2021/01/20 06:28:50;;;;;;;9.80;3.15;;;;;;;;;;4990147;28;20034;-69
2021/01/20 06:31:16;;;;;;;6.60;2.83;;;;;;;;;;4974919;28;20030;-68
2021/01/20 06:33:41;;;;;;;6.43;3.23;;;;;;;;;;4975794;28;20039;-69
2021/01/20 06:36:06;;;;;;;7.67;2.80;;;;;;;;;;4975339;28;20657;-69
2021/01/20 06:38:33;;;;;;;6.87;3.30;;;;;;;;;;4990080;28;20031;-69
2021/01/20 06:40:59;;;;;;;6.22;2.50;;;;;;;;;;4990381;28;20023;-69
2021/01/20 06:43:31;;;;;;;5.67;3.10;;;;;;;;;;4989878;28;20042;-68
2021/01/20 06:46:10;;;;;;;7.57;3.45;;;;;;;;;;4975349;28;20038;-68
2021/01/20 06:48:53;;;;;;;9.13;3.10;;;;;;;;;;4974480;28;20026;-68
2021/01/20 06:51:19;;;;;;;7.22;3.53;;;;;;;;;;4989580;28;20043;-68
2021/01/20 06:54:00;;;;;;;7.72;3.78;;;;;;;;;;4990309;28;20045;-68
2021/01/20 06:56:32;;;;;;;5.32;3.00;;;;;;;;;;4974638;28;20035;-68
2021/01/20 06:59:12;;;;;;;4.55;2.58;;;;;;;;;;4974467;28;20076;-69
2021/01/20 07:01:38;;;;;;;4.40;3.08;;;;;;;;;;4975281;28;20040;-69
2021/01/20 07:04:03;;;;;;;8.40;2.50;;;;;;;;;;4974444;28;20031;-69
2021/01/20 07:06:35;;;;;;;5.50;2.57;;;;;;;;;;4986171;28;20039;-68
2021/01/20 07:09:04;;;;;;;4.32;2.70;;;;;;;;;;4975157;28;20033;-68
2021/01/20 07:11:30;;;;;;;7.72;2.92;;;;;;;;;;4974398;28;20058;-68
2021/01/20 07:13:55;;;;;;;6.75;2.67;;;;;;;;;;4974102;28;20519;-69
2021/01/20 07:16:21;;;;;;;3.95;2.58;;;;;;;;;;4974212;28;20042;-68
2021/01/20 07:18:48;;;;;;;5.07;2.38;;;;;;;;;;4975072;28;20488;-68
2021/01/20 07:21:14;;;;;;;5.10;2.28;;;;;;;;;;4973957;28;20089;-68
2021/01/20 07:23:40;;;;;;;5.00;2.88;;;;;;;;;;4973734;28;20030;-68
2021/01/20 07:26:06;;;;;;;4.43;2.70;;;;;;;;;;4973516;28;20046;-69
2021/01/20 07:28:31;;;;;;;5.95;3.20;;;;;;;;;;4974528;28;20249;-70
2021/01/20 07:31:08;;;;;;;4.88;2.80;;;;;;;;;;4962658;28;20036;-69
2021/01/20 07:33:33;;;;;;;6.47;2.90;;;;;;;;;;4972100;28;20082;-68
2021/01/20 07:36:09;;;;;;;5.13;2.80;;;;;;;;;;4973312;28;20394;-69
2021/01/20 07:38:34;;;;;;;5.40;3.10;;;;;;;;;;4971980;28;20391;-66
2021/01/20 07:41:11;;;;;;;6.13;2.93;;;;;;;;;;4988152;28;20053;-67
2021/01/20 07:43:36;;;;;;;4.90;2.95;;;;;;;;;;4973200;28;20038;-68
2021/01/20 07:46:12;;;;;;;6.53;2.57;;;;;;;;;;4973479;28;20057;-70
2021/01/20 07:48:37;;;;;;;7.65;3.17;;;;;;;;;;4972094;28;20039;-68
2021/01/20 07:51:02;;;;;;;5.77;3.10;;;;;;;;;;4973848;28;20368;-69
2021/01/20 07:53:28;;;;;;;5.37;3.37;;;;;;;;;;4972063;28;20474;-68
2021/01/20 07:55:55;;;;;;;7.43;2.80;;;;;;;;;;4973934;28;20031;-70
2021/01/20 07:58:29;;;;;;;5.70;2.83;;;;;;;;;;4972613;28;20055;-68
2021/01/20 08:00:55;;;;;;;5.35;2.78;;;;;;;;;;4972563;28;20503;-69
2021/01/20 08:03:33;;;;;;;7.23;3.10;;;;;;;;;;4973314;28;20143;-70
2021/01/20 08:05:59;;;;;;;6.40;3.20;;;;;;;;;;4972433;28;20276;-69
2021/01/20 08:08:24;;;;;;;9.45;3.70;;;;;;;;;;4973005;28;20033;-65
2021/01/20 08:10:49;;;;;;;8.00;3.80;;;;;;;;;;4973794;28;20060;-69
2021/01/20 08:13:15;;;;;;;5.23;2.80;;;;;;;;;;4972841;28;20023;-69
2021/01/20 08:15:42;;;;;;;6.13;3.50;;;;;;;;;;4970909;28;20070;-69
2021/01/20 08:18:07;;;;;;;;;;;;;;;;;;4962549;28;20019;-69
2021/01/20 08:20:33;;;;;;;4.67;3.13;;;;;;;;;;4968528;28;19997;-68
2021/01/20 08:22:59;;;;;;;7.65;3.60;;;;;;;;;;4954712;28;20451;-68
2021/01/20 08:25:24;;;;;;;6.05;3.15;;;;;;;;;;4972488;28;20038;-65
2021/01/20 08:27:49;;;;;;;5.07;3.03;;;;;;;;;;4980658;28;20035;-69
2021/01/20 08:30:28;;;;;;;5.77;3.27;;;;;;;;;;4972597;28;20037;-70
2021/01/20 08:32:57;;;;;;;8.55;2.90;;;;;;;;;;4972735;28;20435;-68
2021/01/20 08:35:26;;;;;;;7.78;3.55;;;;;;;;;;4966924;28;20664;-69
2021/01/20 08:37:51;;;;;;;6.55;2.88;;;;;;;;;;4980625;28;20035;-69
2021/01/20 08:40:17;;;;;;;5.87;2.90;;;;;;;;;;4953735;29;20376;-70
2021/01/20 08:42:44;;;;;;;5.57;3.13;;;;;;;;;;4952561;28;20098;-69
2021/01/20 08:45:21;;;;;;;7.10;3.30;;;;;;;;;;4953216;29;20031;-70
2021/01/20 08:47:54;;;;;;;5.80;3.17;;;;;;;;;;4984010;28;20039;-69
2021/01/20 08:50:40;;;;;;;8.40;3.15;;;;;;;;;;4968613;28;20539;-69
2021/01/20 08:53:07;;;;;;;5.18;2.78;;;;;;;;;;4968077;28;20503;-69
2021/01/20 08:55:32;;;;;;;;;;;;;;;;;;4967696;28;20075;-69
2021/01/20 08:58:16;;;;;;;5.50;3.53;;;;;;;;;;4953612;28;19911;-68
2021/01/20 09:00:42;;;;;;;5.22;2.70;;;;;;;;;;4967284;28;20422;-69
2021/01/20 09:03:18;;;;;;;5.55;2.38;;;;;;;;;;4953087;29;20039;-70
2021/01/20 09:05:47;;;;;;;7.00;2.65;;;;;;;;;;4953042;29;20078;-70
2021/01/20 09:08:14;;;;;;;4.78;2.60;;;;;;;;;;4953584;28;20391;-70
2021/01/20 09:10:39;;;;;;;6.50;2.75;;;;;;;;;;4953094;29;20073;-69
2021/01/20 09:13:05;;;;;;;5.95;2.47;;;;;;;;;;4953403;29;20525;-69
2021/01/20 09:15:30;;;;;;;7.90;2.30;;;;;;;;;;4950773;29;20031;-69
2021/01/20 09:17:56;;;;;;;5.87;2.73;;;;;;;;;;4952330;29;20035;-69
2021/01/20 09:20:21;;;;;;;3.23;1.87;;;;;;;;;;4953546;29;20083;-69
2021/01/20 09:22:47;;;;;;;3.47;1.90;;;;;;;;;;4953001;29;20462;-68
2021/01/20 09:25:13;;;;;;;5.23;2.50;;;;;;;;;;4967980;28;20020;-69
2021/01/20 09:27:38;;;;;;;4.20;2.20;;;;;;;;;;4952718;29;20368;-69
2021/01/20 09:30:04;;;;;;;4.63;2.03;;;;;;;;;;4952947;29;20047;-69
2021/01/20 09:32:34;;;;;;;4.95;2.40;;;;;;;;;;4969475;28;20075;-67
2021/01/20 09:34:59;;;;;;;6.38;2.70;;;;;;;;;;4972095;28;20130;-69
2021/01/20 09:37:25;;;;;;;6.13;2.93;;;;;;;;;;4972256;28;20076;-53
2021/01/20 09:39:50;;;;;;;4.20;2.30;;;;;;;;;;4972773;28;20043;-68
2021/01/20 09:42:15;;;;;;;11.70;2.40;;;;;;;;;;4972622;28;20027;-69
2021/01/20 09:44:41;;;;;;;3.07;2.00;;;;;;;;;;4985981;28;20115;-68
2021/01/20 09:47:06;;;;;;;3.53;1.90;;;;;;;;;;4971062;28;20317;-63
2021/01/20 09:49:32;;;;;;;6.20;2.03;;;;;;;;;;4971996;28;20035;-68
2021/01/20 09:51:57;;;;;;;4.37;2.10;;;;;;;;;;4972744;28;20014;-68
2021/01/20 09:54:25;;;;;;;7.73;2.20;;;;;;;;;;4974465;28;20034;-69
2021/01/20 09:56:51;;;;;;;3.37;1.90;;;;;;;;;;4974255;28;20018;-68
2021/01/20 09:59:17;;;;;;;5.07;2.27;;;;;;;;;;4975137;28;20273;-68
2021/01/20 10:01:42;;;;;;;5.50;1.97;;;;;;;;;;4974359;28;20038;-68
2021/01/20 10:04:07;;;;;;;3.73;1.87;;;;;;;;;;4975618;28;20035;-70
2021/01/20 10:06:32;;;;;;;4.77;1.90;;;;;;;;;;4975036;28;20038;-68
2021/01/20 10:08:58;;;;;;;3.80;2.00;;;;;;;;;;4976090;28;20061;-69
2021/01/20 10:11:23;;;;;;;2.87;1.47;;;;;;;;;;4975578;28;20081;-68
2021/01/20 10:13:49;;;;;;;6.13;2.07;;;;;;;;;;4975021;28;20113;-69
2021/01/20 10:16:14;;;;;;;4.30;2.30;;;;;;;;;;4974377;28;20038;-69
2021/01/20 10:18:39;;;;;;;2.87;1.50;;;;;;;;;;4974946;28;20094;-69
2021/01/20 10:21:04;;;;;;;4.13;1.97;;;;;;;;;;4975619;28;20026;-69
2021/01/20 10:23:30;;;;;;;7.83;2.13;;;;;;;;;;4975412;28;20071;-69
2021/01/20 10:25:55;;;;;;;5.97;1.70;;;;;;;;;;4975808;28;20030;-69
2021/01/20 10:28:21;;;;;;;4.57;1.93;;;;;;;;;;4990626;28;20050;-69
2021/01/20 10:30:46;;;;;;;4.93;2.07;;;;;;;;;;4973984;28;20062;-66
2021/01/20 10:33:11;;;;;;;3.93;2.07;;;;;;;;;;4975089;28;20467;-68
2021/01/20 10:35:36;;;;;;;6.90;2.23;;;;;;;;;;4974063;28;20049;-68
2021/01/20 10:38:02;;;;;;;4.00;1.97;;;;;;;;;;4975048;28;20150;-70
2021/01/20 10:40:27;;;;;;;6.00;1.60;;;;;;;;;;4974748;28;20026;-60
2021/01/20 10:42:53;;;;;;;4.40;2.47;;;;;;;;;;4975105;28;20052;-68
2021/01/20 10:45:18;;;;;;;3.60;1.77;;;;;;;;;;4989837;28;20035;-69
2021/01/20 10:47:44;;;;;;;5.13;1.77;;;;;;;;;;4974418;28;20027;-69
2021/01/20 10:50:09;;;;;;;4.03;1.60;;;;;;;;;;4975388;28;20027;-69
2021/01/20 10:52:34;;;;;;;3.80;1.90;;;;;;;;;;4974084;28;20360;-68
2021/01/20 10:55:00;;;;;;;4.40;1.93;;;;;;;;;;4975194;28;20030;-69
2021/01/20 10:57:25;;;;;;;5.27;2.60;;;;;;;;;;4974750;28;20038;-69
2021/01/20 10:59:50;;;;;;;3.10;1.97;;;;;;;;;;4974376;28;20051;-69
2021/01/20 11:02:16;;;;;;;3.90;1.97;;;;;;;;;;4989456;28;20092;-69
2021/01/20 11:04:41;;;;;;;4.40;1.60;;;;;;;;;;4973723;28;20117;-68
2021/01/20 11:07:07;;;;;;;3.30;1.73;;;;;;;;;;4975249;28;20114;-68
2021/01/20 11:09:32;;;;;;;4.18;1.77;;;;;;;;;;4974312;28;20031;-68
2021/01/20 11:11:58;;;;;;;3.07;1.53;;;;;;;;;;4974497;28;20085;-69
2021/01/20 11:14:24;;;;;;;3.73;1.53;;;;;;;;;;4974051;28;20517;-68
2021/01/20 11:16:52;;;;;;;4.68;2.40;;;;;;;;;;4973265;28;20128;-68
2021/01/20 11:19:18;;;;;;;4.07;1.90;;;;;;;;;;4974559;28;20037;-69
2021/01/20 11:21:43;;;;;;;5.73;2.20;;;;;;;;;;4973329;28;20281;-69
2021/01/20 11:24:09;;;;;;;5.83;1.83;;;;;;;;;;4974543;28;20019;-68
2021/01/20 11:26:35;;;;;;;4.80;1.80;;;;;;;;;;4973956;28;20034;-68
2021/01/20 11:29:00;;;;;;;4.78;2.10;;;;;;;;;;4974058;28;20268;-68
2021/01/20 11:31:26;;;;;;;4.20;2.10;;;;;;;;;;4988589;28;20328;-66
2021/01/20 11:33:53;;;;;;;4.57;2.10;;;;;;;;;;4973573;28;20130;-68
2021/01/20 11:36:18;;;;;;;5.30;1.87;;;;;;;;;;4973675;28;20170;-69
2021/01/20 11:38:43;;;;;;;3.30;1.77;;;;;;;;;;4973387;28;20820;-69
2021/01/20 11:41:09;;;;;;;5.20;1.83;;;;;;;;;;4974609;28;20505;-69
2021/01/20 11:43:34;;;;;;;4.37;2.10;;;;;;;;;;4988349;28;20034;-68
2021/01/20 11:45:59;;;;;;;4.37;2.00;;;;;;;;;;4973133;28;20076;-69
2021/01/20 11:48:25;;;;;;;5.67;2.93;;;;;;;;;;4973958;28;20097;-68
2021/01/20 11:50:50;;;;;;;3.23;1.73;;;;;;;;;;4973503;28;20394;-67
2021/01/20 11:53:15;;;;;;;2.60;1.60;;;;;;;;;;4972041;28;20365;-69
2021/01/20 11:55:41;;;;;;;5.07;1.90;;;;;;;;;;4972662;28;20037;-65
2021/01/20 11:58:06;;;;;;;2.97;2.00;;;;;;;;;;4973856;28;20556;-68
2021/01/20 12:00:32;;;;;;;5.53;1.90;;;;;;;;;;4971623;28;20062;-68
2021/01/20 12:02:57;;;;;;;6.83;1.90;;;;;;;;;;4972085;28;20391;-68
2021/01/20 12:05:22;;;;;;;4.13;2.03;;;;;;;;;;4973472;28;20042;-68
2021/01/20 12:07:48;;;;;;;4.00;2.10;;;;;;;;;;4972701;28;20022;-64
2021/01/20 12:10:14;;;;;;;5.73;2.60;;;;;;;;;;4972756;28;20066;-68
2021/01/20 12:12:40;;;;;;;5.97;1.70;;;;;;;;;;4971383;28;20011;-68
2021/01/20 12:15:06;;;;;;;5.13;2.37;;;;;;;;;;4985911;28;20406;-68
2021/01/20 12:17:32;;;;;;;4.00;1.92;;;;;;;;;;4970480;28;20281;-68
2021/01/20 12:19:57;;;;;;;4.63;2.40;;;;;;;;;;4973016;28;20031;-68
2021/01/20 12:22:23;;;;;;;5.30;1.90;;;;;;;;;;4972740;28;20035;-68
2021/01/20 12:24:48;;;;;;;4.47;1.90;;;;;;;;;;4972390;28;20019;-69
2021/01/20 12:27:13;;;;;;;6.87;1.93;;;;;;;;;;4973107;28;20407;-69
2021/01/20 12:29:39;;;;;;;4.33;1.90;;;;;;;;;;4971604;28;20050;-68
2021/01/20 12:32:04;;;;;;;5.20;1.80;;;;;;;;;;4986599;28;20470;-68
2021/01/20 12:34:30;;;;;;;4.95;2.20;;;;;;;;;;4972459;28;20371;-58
2021/01/20 12:36:56;;;;;;;4.10;1.90;;;;;;;;;;4972333;28;20509;-68
2021/01/20 12:39:21;;;;;;;11.57;2.47;;;;;;;;;;4967319;28;20106;-68
2021/01/20 12:41:46;;;;;;;15.20;2.40;;;;;;;;;;4972098;28;20019;-68
2021/01/20 12:44:12;;;;;;;4.80;2.27;;;;;;;;;;4987288;28;20097;-64
2021/01/20 12:46:37;;;;;;;4.47;1.70;;;;;;;;;;4972243;28;20431;-69
2021/01/20 12:49:03;;;;;;;4.53;1.67;;;;;;;;;;4972848;28;20073;-69
2021/01/20 12:51:28;;;;;;;6.03;2.60;;;;;;;;;;4972710;28;20288;-69
2021/01/20 12:53:53;;;;;;;6.10;1.90;;;;;;;;;;4972335;28;20035;-69
2021/01/20 12:56:19;;;;;;;3.43;1.93;;;;;;;;;;4972459;28;20093;-69
2021/01/20 12:58:44;;;;;;;7.90;2.37;;;;;;;;;;4971770;28;20150;-69
2021/01/20 13:01:09;;;;;;;7.47;1.93;;;;;;;;;;4972482;28;20035;-69
2021/01/20 13:03:35;;;;;;;2.70;1.47;;;;;;;;;;4972454;28;20035;-68
2021/01/20 13:06:00;;;;;;;9.37;2.20;;;;;;;;;;4972884;28;20089;-69
2021/01/20 13:08:26;;;;;;;10.73;2.60;;;;;;;;;;4972818;28;20026;-69
2021/01/20 13:10:51;;;;;;;5.20;2.07;;;;;;;;;;4971671;28;20660;-69
2021/01/20 13:13:17;;;;;;;8.40;2.47;;;;;;;;;;4970969;28;20030;-69
2021/01/20 13:15:44;;;;;;;10.07;2.87;;;;;;;;;;4985914;28;20202;-66
2021/01/20 13:18:09;;;;;;;6.67;2.40;;;;;;;;;;4984047;28;20424;-69
2021/01/20 13:20:34;;;;;;;5.73;2.43;;;;;;;;;;4971549;28;20263;-68
2021/01/20 13:23:00;;;;;;;9.73;2.13;;;;;;;;;;4972123;28;20034;-69
2021/01/20 13:25:25;;;;;;;6.77;2.07;;;;;;;;;;4967738;28;20054;-68
2021/01/20 13:27:51;;;;;;;3.67;1.83;;;;;;;;;;4973085;28;20061;-68
2021/01/20 13:30:16;;;;;;;3.97;1.50;;;;;;;;;;4990589;28;20056;-68
2021/01/20 13:32:42;;;;;;;4.82;1.88;;;;;;;;;;4975310;28;20119;-69
2021/01/20 13:35:08;;;;;;;5.83;2.10;;;;;;;;;;4976258;28;20031;-69
2021/01/20 13:37:33;;;;;;;4.20;1.95;;;;;;;;;;4974410;28;20050;-69
2021/01/20 13:39:59;;;;;;;3.13;1.95;;;;;;;;;;4991394;28;20026;-69
2021/01/20 13:42:24;;;;;;;4.43;2.00;;;;;;;;;;4976556;28;20050;-67
2021/01/20 13:44:50;;;;;;;3.87;1.93;;;;;;;;;;4972771;28;20113;-68
2021/01/20 13:47:15;;;;;;;4.53;2.17;;;;;;;;;;4976173;28;20082;-68
2021/01/20 13:49:40;;;;;;;7.67;2.07;;;;;;;;;;4975659;28;20318;-69
2021/01/20 13:52:06;;;;;;;4.07;1.97;;;;;;;;;;4975011;28;20030;-67
2021/01/20 13:54:31;;;;;;;5.50;2.37;;;;;;;;;;4956797;28;20112;-68
2021/01/20 13:56:57;;;;;;;5.60;2.40;;;;;;;;;;4955522;29;20404;-70
2021/01/20 13:59:22;;;;;;;4.80;2.10;;;;;;;;;;4955963;29;20063;-69
2021/01/20 14:01:49;;;;;;;5.90;2.60;;;;;;;;;;4956306;29;20415;-68
2021/01/20 14:04:14;;;;;;;5.10;2.13;;;;;;;;;;4956823;29;20031;-68
2021/01/20 14:06:39;;;;;;;4.73;1.90;;;;;;;;;;4970800;28;20510;-69
2021/01/20 14:09:05;;;;;;;6.07;2.43;;;;;;;;;;4956536;29;20111;-68
2021/01/20 14:11:30;;;;;;;6.77;1.97;;;;;;;;;;4956427;29;20031;-68
2021/01/20 14:13:58;;;;;;;5.57;2.20;;;;;;;;;;4970091;28;20114;-69
2021/01/20 14:16:24;;;;;;;6.27;2.13;;;;;;;;;;4956520;29;20042;-69
2021/01/20 14:18:51;;;;;;;8.57;2.10;;;;;;;;;;4969846;28;20593;-69
2021/01/20 14:21:17;;;;;;;6.43;2.80;;;;;;;;;;4975694;28;20332;-67
2021/01/20 14:23:42;;;;;;;5.00;2.37;;;;;;;;;;4974891;28;20038;-68
2021/01/20 14:26:08;;;;;;;3.40;1.98;;;;;;;;;;4990734;28;20063;-68
2021/01/20 14:28:33;;;;;;;10.30;2.70;;;;;;;;;;4989555;28;20031;-67
2021/01/20 14:31:02;;;;;;;5.77;2.10;;;;;;;;;;4975002;28;20034;-69
2021/01/20 14:33:27;;;;;;;5.80;2.20;;;;;;;;;;4990782;28;20053;-69
2021/01/20 14:35:54;;;;;;;6.73;1.70;;;;;;;;;;4972616;28;20308;-69
2021/01/20 14:38:20;;;;;;;3.83;2.07;;;;;;;;;;4974577;28;20031;-69
2021/01/20 14:40:45;;;;;;;6.17;2.23;;;;;;;;;;4973505;28;20271;-69
2021/01/20 14:43:11;;;;;;;4.57;1.87;;;;;;;;;;4966123;28;20057;-68
2021/01/20 14:45:36;;;;;;;4.30;1.60;;;;;;;;;;4959041;28;20114;-69
2021/01/20 14:48:01;;;;;;;4.67;1.70;;;;;;;;;;4972727;28;20117;-69
2021/01/20 14:50:30;;;;;;;4.27;1.70;;;;;;;;;;4975145;28;20038;-70
2021/01/20 14:52:55;;;;;;;3.03;1.77;;;;;;;;;;4973389;28;20014;-69
2021/01/20 14:55:21;;;;;;;5.40;1.90;;;;;;;;;;4974959;28;20276;-70
2021/01/20 14:57:46;;;;;;;4.63;1.90;;;;;;;;;;4973097;28;20041;-69
2021/01/20 15:00:12;;;;;;;4.97;2.87;;;;;;;;;;4974887;28;20046;-69
2021/01/20 15:02:38;;;;;;;7.32;1.73;;;;;;;;;;4975180;28;20042;-70
2021/01/20 15:05:07;;;;;;;5.57;2.10;;;;;;;;;;4989714;28;20037;-70
2021/01/20 15:07:32;;;;;;;5.17;2.10;;;;;;;;;;4974085;28;20749;-61
2021/01/20 15:09:57;;;;;;;7.73;2.70;;;;;;;;;;4969395;28;20514;-68
2021/01/20 15:12:23;;;;;;;3.47;1.73;;;;;;;;;;4953718;29;20038;-68
2021/01/20 15:14:48;;;;;;;4.40;2.63;;;;;;;;;;4954260;28;20039;-70
2021/01/20 15:17:13;;;;;;;8.10;3.37;;;;;;;;;;4974416;28;20041;-69
2021/01/20 15:19:39;;;;;;;5.00;2.10;;;;;;;;;;4974774;28;20035;-53
2021/01/20 15:22:05;;;;;;;4.25;2.08;;;;;;;;;;4973509;28;20033;-69
2021/01/20 15:24:30;;;;;;;7.53;2.00;;;;;;;;;;4974546;28;20386;-66
2021/01/20 15:26:55;;;;;;;4.30;1.97;;;;;;;;;;4974575;28;20058;-69
2021/01/20 15:29:21;;;;;;;4.93;2.47;;;;;;;;;;4973218;28;20062;-70
2021/01/20 15:31:46;;;;;;;4.60;1.90;;;;;;;;;;4973947;28;20038;-71
2021/01/20 15:34:12;;;;;;;7.40;2.30;;;;;;;;;;4974564;28;20033;-70
2021/01/20 15:36:37;;;;;;;9.13;2.08;;;;;;;;;;4972206;28;20031;-69
2021/01/20 15:39:04;;;;;;;3.50;1.90;;;;;;;;;;4972271;28;20039;-69
2021/01/20 15:41:29;;;;;;;8.23;2.57;;;;;;;;;;4974237;28;20102;-70
2021/01/20 15:43:55;;;;;;;6.50;1.93;;;;;;;;;;4971645;28;20641;-69
2021/01/20 15:46:20;;;;;;;4.80;2.37;;;;;;;;;;4972706;28;20057;-70
2021/01/20 15:48:45;;;;;;;5.37;2.07;;;;;;;;;;4972762;28;20073;-70
2021/01/20 15:51:11;;;;;;;4.83;2.67;;;;;;;;;;4972595;28;20034;-69
2021/01/20 15:53:36;;;;;;;3.57;2.10;;;;;;;;;;4972765;28;20018;-70
2021/01/20 15:56:02;;;;;;;6.90;2.30;;;;;;;;;;4973142;28;20046;-69